Burlington, Wyoming
Current Conditions -  °F | °C
As of 2:53 PM on Thursday 27 Nov 2014 (Local Time) from KGEY Reporting Station
Clear Clear  
Wind Chill: 26°   Ceiling: Unl
Heat Index: 32°   Visibility: 10mi
Dew Point: 27°   Wind: 6mph
Humidity: 82%   Direction: 140°SE
Pressure: 29.98"   Gusts: NA
Location:  44.45°N, 108.43°W
Report Text: KGEY 272153Z AUTO 14005KT 10SM CLR 00/M03 A2998 RMK AO2 SLP192 T00001028
Loading
Personal Weather Stations






























Interactive Weather Map New forecast layout! Learn more

10-Day Weather Forecast

Advertisements
Track Severe Weather on mobile